Saturn, Texas
Current Conditions -  °F | °C
As of 10:15 PM on Tuesday 27 Jan 2015 (Local Time) from KT20 Reporting Station
Clear Clear  
Wind Chill: 60°   Ceiling: Unl
Heat Index: 60°   Visibility: 10mi
Dew Point: 44°   Wind: 5mph
Humidity: 56%   Direction: 130°SE
Pressure: 30.13"   Gusts: NA
Location:  29.6608°N, 97.4854°W
Report Text: KT20 280415Z AUTO 13004KT 10SM CLR 15/07 A3013 RMK AO2 T01530065
Loading
Personal Weather Stations






























Interactive Weather Map New forecast layout! Learn more

10-Day Weather Forecast

Advertisements
Track Severe Weather on mobile